Terminal Aerodrome Forecast
Issued by NWS

Home | Current Version | Previous Version | Text Only | Print | Product List | Glossary On
Versions: 1 2 3 4 5 6 7 8 9 10 11 12
000
FTUS45 KABQ 282339
TAFLVS
TAF
KLVS 282339Z 2900/2924 06010KT P6SM BKN080
     FM290100 06010KT P6SM VCTS BKN080CB
     FM290400 03006KT P6SM SCT090
     FM292000 15010KT P6SM VCSH SCT090=

USA.gov is the U.S. government's official web portal to all federal, state and local government web resources and services.